createdAt,value
2023-05-25T00:00:31.515Z,18.10
2023-05-25T00:02:59.621Z,18.10
2023-05-25T00:05:27.897Z,18.10
2023-05-25T00:07:55.488Z,18.10
2023-05-25T00:10:24.105Z,18.10
2023-05-25T00:12:51.861Z,18.10
2023-05-25T00:15:18.996Z,18.10
2023-05-25T00:17:49.114Z,18.10
2023-05-25T00:20:16.435Z,18.10
2023-05-25T00:22:46.191Z,18.10
2023-05-25T00:25:13.331Z,18.00
2023-05-25T00:27:40.527Z,18.00
2023-05-25T00:30:08.006Z,18.10
2023-05-25T00:32:35.059Z,18.20
2023-05-25T00:35:02.080Z,18.30
2023-05-25T00:37:29.131Z,18.40
2023-05-25T00:39:56.211Z,18.40
2023-05-25T00:42:23.679Z,18.40
2023-05-25T00:44:50.755Z,18.40
2023-05-25T00:47:17.918Z,18.20
2023-05-25T00:49:46.287Z,18.30
2023-05-25T00:52:13.646Z,18.30
2023-05-25T00:54:40.722Z,18.40
2023-05-25T00:57:08.211Z,18.50
2023-05-25T00:59:43.098Z,18.50
2023-05-25T01:02:11.153Z,18.50
2023-05-25T01:04:45.350Z,18.40
2023-05-25T01:07:17.908Z,18.30
2023-05-25T01:09:45.825Z,18.30
2023-05-25T01:12:15.047Z,18.30
2023-05-25T01:14:42.399Z,18.10
2023-05-25T01:17:12.153Z,18.20
2023-05-25T01:19:41.181Z,18.40
2023-05-25T01:22:12.424Z,18.30
2023-05-25T01:24:41.250Z,18.30
2023-05-25T01:27:32.648Z,18.40
2023-05-25T01:30:00.424Z,18.40
2023-05-25T01:32:27.588Z,18.40
2023-05-25T01:34:56.502Z,18.40
2023-05-25T01:37:27.048Z,18.40
2023-05-25T01:39:54.044Z,18.50
2023-05-25T01:42:21.298Z,18.40
2023-05-25T01:44:48.412Z,18.40
2023-05-25T01:47:34.305Z,18.10
2023-05-25T01:50:01.372Z,18.10
2023-05-25T01:52:41.642Z,18.00
2023-05-25T01:55:12.875Z,18.00
2023-05-25T01:57:42.754Z,17.80
2023-05-25T02:00:10.493Z,17.90
2023-05-25T02:02:44.190Z,17.90
2023-05-25T02:05:11.692Z,17.90
2023-05-25T02:07:39.140Z,18.00
2023-05-25T02:10:06.445Z,18.00
2023-05-25T02:12:33.382Z,18.00
2023-05-25T02:15:00.348Z,18.00
2023-05-25T02:17:28.191Z,18.00
2023-05-25T02:19:55.308Z,18.00
2023-05-25T02:22:22.657Z,18.00
2023-05-25T02:24:49.684Z,18.00
2023-05-25T02:27:16.757Z,17.90
2023-05-25T02:29:43.870Z,17.90
2023-05-25T02:32:10.962Z,17.90
2023-05-25T02:34:37.972Z,17.90
2023-05-25T02:37:06.386Z,17.90
2023-05-25T02:39:33.330Z,17.90
2023-05-25T02:42:01.489Z,17.90
2023-05-25T02:44:28.598Z,17.80
2023-05-25T02:46:55.782Z,17.80
2023-05-25T02:49:23.562Z,17.80
2023-05-25T02:51:50.646Z,17.80
2023-05-25T02:54:17.606Z,17.70
2023-05-25T02:56:45.903Z,17.70
2023-05-25T02:59:15.128Z,17.70
2023-05-25T03:01:42.250Z,17.70
2023-05-25T03:04:09.381Z,17.70
2023-05-25T03:06:38.108Z,17.70
2023-05-25T03:09:12.397Z,17.70
2023-05-25T03:11:40.435Z,17.70
2023-05-25T03:14:10.586Z,17.60
2023-05-25T03:16:39.243Z,17.60
2023-05-25T03:19:07.589Z,17.60
2023-05-25T03:21:37.210Z,17.70
2023-05-25T03:24:04.314Z,17.70
2023-05-25T03:26:32.338Z,17.50
2023-05-25T03:29:01.049Z,17.40
2023-05-25T03:31:28.068Z,17.50
2023-05-25T03:33:55.135Z,17.60
2023-05-25T03:36:23.031Z,17.60
2023-05-25T03:38:49.995Z,17.50
2023-05-25T03:41:16.980Z,17.50
2023-05-25T03:43:43.924Z,17.50
2023-05-25T03:46:11.884Z,17.50
2023-05-25T03:48:39.047Z,17.50
2023-05-25T03:51:05.960Z,17.50
2023-05-25T03:53:32.856Z,17.50
2023-05-25T03:55:59.825Z,17.50
2023-05-25T03:58:26.834Z,17.50
2023-05-25T04:00:55.036Z,17.50
2023-05-25T04:03:22.257Z,17.60
2023-05-25T04:05:50.269Z,17.70
2023-05-25T04:08:20.109Z,17.70
2023-05-25T04:10:47.475Z,17.70
2023-05-25T04:13:14.359Z,17.70
2023-05-25T04:15:41.400Z,17.70
2023-05-25T04:18:28.583Z,17.70
2023-05-25T04:20:59.710Z,17.80
2023-05-25T04:23:26.871Z,17.80
2023-05-25T04:25:55.197Z,17.80
2023-05-25T04:28:22.862Z,17.80
2023-05-25T04:30:57.351Z,17.80
2023-05-25T04:33:43.225Z,17.90
2023-05-25T04:36:22.994Z,17.90
2023-05-25T04:38:54.925Z,17.90
2023-05-25T04:41:23.155Z,17.80
2023-05-25T04:44:06.871Z,17.90
2023-05-25T04:46:40.868Z,17.90
2023-05-25T04:49:13.383Z,17.90
2023-05-25T04:51:40.377Z,17.90
2023-05-25T04:54:07.852Z,17.90
2023-05-25T04:56:34.812Z,17.90
2023-05-25T04:59:04.631Z,18.10
2023-05-25T05:01:34.545Z,18.20
2023-05-25T05:04:03.299Z,18.30
2023-05-25T05:06:30.299Z,18.30
2023-05-25T05:08:58.156Z,18.30
2023-05-25T05:11:25.138Z,18.50
2023-05-25T05:13:53.803Z,18.70
2023-05-25T05:16:21.190Z,18.80
2023-05-25T05:18:48.346Z,18.70
2023-05-25T05:21:15.623Z,18.90
2023-05-25T05:23:43.013Z,19.10
2023-05-25T05:26:11.787Z,19.00
2023-05-25T05:28:39.110Z,19.00
2023-05-25T05:31:07.621Z,19.20
2023-05-25T05:33:35.304Z,19.10
2023-05-25T05:36:03.895Z,19.40
2023-05-25T05:38:31.360Z,19.40
2023-05-25T05:40:58.433Z,19.20
2023-05-25T05:43:25.713Z,19.30
2023-05-25T05:45:53.208Z,19.30
2023-05-25T05:48:20.566Z,19.50
2023-05-25T05:50:47.664Z,19.80
2023-05-25T05:53:15.661Z,19.80
2023-05-25T05:55:43.520Z,19.90
2023-05-25T05:58:10.615Z,20.00
2023-05-25T06:00:37.810Z,20.10
2023-05-25T06:03:07.520Z,20.00
2023-05-25T06:05:34.602Z,20.10
2023-05-25T06:08:01.790Z,20.20
2023-05-25T06:10:28.807Z,20.50
2023-05-25T06:12:55.937Z,20.60
2023-05-25T06:15:23.086Z,20.60
2023-05-25T06:17:52.243Z,20.70
2023-05-25T06:20:19.353Z,20.90
2023-05-25T06:22:47.057Z,20.80
2023-05-25T06:25:14.187Z,21.00
2023-05-25T06:27:41.376Z,20.90
2023-05-25T06:30:08.697Z,21.00
2023-05-25T06:32:37.037Z,20.70
2023-05-25T06:35:04.692Z,20.20
2023-05-25T06:37:38.084Z,20.30
2023-05-25T06:40:09.550Z,20.60
2023-05-25T06:42:37.913Z,20.50
2023-05-25T06:45:05.457Z,21.00
2023-05-25T06:47:32.497Z,21.10
2023-05-25T06:49:59.855Z,21.30
2023-05-25T06:52:29.824Z,20.90
2023-05-25T06:54:57.211Z,21.20
2023-05-25T06:57:24.479Z,21.00
2023-05-25T06:59:51.424Z,20.80
2023-05-25T07:02:19.932Z,20.60
2023-05-25T07:04:46.978Z,20.50
2023-05-25T07:07:14.514Z,20.40
2023-05-25T07:09:41.814Z,20.50
2023-05-25T07:12:10.142Z,21.00
2023-05-25T07:14:37.717Z,21.50
2023-05-25T07:17:04.798Z,21.30
2023-05-25T07:19:31.800Z,21.10
2023-05-25T07:21:58.748Z,21.00
2023-05-25T07:24:25.911Z,20.70
2023-05-25T07:26:52.848Z,20.80
2023-05-25T07:29:19.806Z,20.70
2023-05-25T07:31:46.844Z,20.50
2023-05-25T07:34:13.857Z,20.50
2023-05-25T07:36:40.812Z,21.00
2023-05-25T07:39:08.667Z,21.60
2023-05-25T07:41:35.647Z,21.80
2023-05-25T07:44:02.622Z,22.00
2023-05-25T07:46:29.859Z,22.30
2023-05-25T07:48:58.447Z,22.30
2023-05-25T07:51:29.134Z,22.10
2023-05-25T07:53:57.255Z,22.00
2023-05-25T07:56:24.503Z,21.90
2023-05-25T07:58:51.487Z,21.70
2023-05-25T08:01:18.829Z,21.80
2023-05-25T08:03:49.787Z,21.80
2023-05-25T08:06:17.505Z,21.80
2023-05-25T08:08:47.131Z,21.70
2023-05-25T08:11:14.986Z,21.90
2023-05-25T08:13:41.977Z,22.20
2023-05-25T08:16:09.518Z,22.20
2023-05-25T08:18:36.665Z,22.40
2023-05-25T08:21:03.738Z,22.40
2023-05-25T08:23:30.825Z,22.00
2023-05-25T08:25:57.775Z,21.80
2023-05-25T08:28:24.714Z,21.90
2023-05-25T08:30:51.742Z,21.70
2023-05-25T08:33:18.740Z,21.90
2023-05-25T08:35:45.915Z,22.00
2023-05-25T08:38:13.022Z,21.80
2023-05-25T08:40:41.510Z,21.70
2023-05-25T08:43:08.525Z,21.90
2023-05-25T08:45:37.611Z,21.70
2023-05-25T08:48:10.903Z,22.00
2023-05-25T08:50:38.780Z,22.50
2023-05-25T08:53:08.425Z,22.80
2023-05-25T08:55:36.549Z,22.90
2023-05-25T08:58:10.069Z,22.30
2023-05-25T09:00:40.740Z,21.90
2023-05-25T09:03:14.185Z,21.70
2023-05-25T09:05:42.180Z,21.90
2023-05-25T09:08:10.542Z,22.40
2023-05-25T09:10:38.478Z,22.80
2023-05-25T09:13:19.467Z,22.70
2023-05-25T09:15:48.427Z,22.40
2023-05-25T09:18:15.678Z,22.60
2023-05-25T09:20:45.945Z,22.80
2023-05-25T09:23:14.372Z,22.80
2023-05-25T09:25:41.673Z,22.50
2023-05-25T09:28:25.305Z,22.30
2023-05-25T09:30:54.111Z,22.20
2023-05-25T09:33:21.628Z,22.30
2023-05-25T09:35:49.133Z,22.70
2023-05-25T09:38:17.187Z,23.20
2023-05-25T09:40:45.041Z,22.80
2023-05-25T09:43:17.294Z,22.50
2023-05-25T09:45:49.469Z,22.50
2023-05-25T09:48:18.024Z,22.50
2023-05-25T09:50:46.076Z,22.50
2023-05-25T09:53:15.037Z,22.30
2023-05-25T09:55:53.124Z,22.20
2023-05-25T09:58:22.897Z,22.20
2023-05-25T10:00:49.809Z,22.30
2023-05-25T10:03:17.126Z,22.60
2023-05-25T10:05:45.626Z,22.60
2023-05-25T10:08:13.055Z,22.50
2023-05-25T10:10:41.220Z,22.40
2023-05-25T10:13:08.673Z,22.50
2023-05-25T10:15:37.852Z,22.80
2023-05-25T10:18:05.994Z,22.90
2023-05-25T10:20:35.224Z,22.90
2023-05-25T10:23:10.016Z,22.90
2023-05-25T10:25:42.038Z,23.20
2023-05-25T10:28:19.912Z,23.00
2023-05-25T10:30:47.703Z,22.70
2023-05-25T10:33:14.960Z,22.90
2023-05-25T10:36:01.587Z,22.80
2023-05-25T10:38:31.806Z,22.60
2023-05-25T10:40:59.914Z,22.50
2023-05-25T10:43:27.680Z,22.60
2023-05-25T10:45:55.634Z,22.80
2023-05-25T10:48:23.939Z,23.30
2023-05-25T10:50:51.667Z,23.40
2023-05-25T10:53:21.102Z,23.40
2023-05-25T10:55:54.231Z,23.20
2023-05-25T10:58:22.402Z,23.00
2023-05-25T11:01:00.415Z,22.80
2023-05-25T11:03:46.423Z,22.80
2023-05-25T11:06:17.946Z,22.80
2023-05-25T11:08:55.698Z,22.80
2023-05-25T11:11:23.144Z,22.80
2023-05-25T11:13:50.370Z,23.30
2023-05-25T11:16:20.723Z,23.60
2023-05-25T11:18:55.138Z,23.50
2023-05-25T11:21:29.074Z,23.30
2023-05-25T11:23:56.244Z,23.20
2023-05-25T11:26:29.588Z,23.00
2023-05-25T11:28:59.075Z,22.90
2023-05-25T11:31:31.984Z,23.00
2023-05-25T11:34:01.218Z,22.90
2023-05-25T11:36:31.673Z,23.00
2023-05-25T11:39:04.936Z,23.00
2023-05-25T11:41:36.644Z,23.20
2023-05-25T11:44:04.542Z,23.50
2023-05-25T11:46:33.266Z,23.70
2023-05-25T11:49:01.099Z,23.80
2023-05-25T11:51:29.233Z,23.70
2023-05-25T11:53:56.894Z,23.50
2023-05-25T11:56:34.981Z,23.40
2023-05-25T11:59:02.836Z,23.40
2023-05-25T12:01:32.193Z,23.30
2023-05-25T12:04:08.046Z,23.30
2023-05-25T12:06:36.832Z,23.30
2023-05-25T12:09:08.319Z,23.40
2023-05-25T12:11:38.504Z,23.50
2023-05-25T12:14:06.666Z,23.60
2023-05-25T12:16:34.990Z,23.60
2023-05-25T12:19:02.526Z,23.60
2023-05-25T12:21:29.772Z,23.60
2023-05-25T12:23:56.941Z,23.70
2023-05-25T12:26:24.212Z,23.50
2023-05-25T12:29:04.253Z,23.40
2023-05-25T12:31:33.136Z,23.40
2023-05-25T12:34:02.943Z,23.30
2023-05-25T12:36:40.374Z,23.30
2023-05-25T12:39:07.937Z,23.30
2023-05-25T12:41:44.709Z,23.40
2023-05-25T12:44:23.949Z,23.50
2023-05-25T12:46:55.564Z,23.50
2023-05-25T12:49:32.786Z,23.50
2023-05-25T12:52:01.264Z,23.50
2023-05-25T12:54:46.926Z,23.50
2023-05-25T12:57:14.604Z,23.50
2023-05-25T12:59:42.911Z,23.50
2023-05-25T13:02:10.492Z,23.50
2023-05-25T13:04:38.401Z,23.40
2023-05-25T13:07:05.931Z,23.50
2023-05-25T13:09:33.102Z,23.70
2023-05-25T13:12:01.928Z,23.90
2023-05-25T13:14:29.600Z,24.20
2023-05-25T13:16:57.596Z,24.10
2023-05-25T13:19:26.238Z,24.20
2023-05-25T13:21:53.357Z,24.20
2023-05-25T13:24:20.558Z,24.00
2023-05-25T13:26:49.153Z,23.80
2023-05-25T13:29:19.060Z,23.80
2023-05-25T13:31:46.910Z,23.80
2023-05-25T13:34:14.013Z,23.80
2023-05-25T13:36:41.303Z,23.80
2023-05-25T13:39:10.917Z,23.80
2023-05-25T13:41:37.950Z,23.80
2023-05-25T13:44:04.981Z,23.80
2023-05-25T13:46:35.045Z,23.80
2023-05-25T13:49:02.743Z,24.00
2023-05-25T13:51:29.707Z,24.10
2023-05-25T13:53:56.722Z,24.30
2023-05-25T13:56:24.072Z,24.50
2023-05-25T13:58:51.011Z,24.20
2023-05-25T14:01:18.020Z,24.00
2023-05-25T14:03:45.899Z,24.00
2023-05-25T14:06:12.981Z,24.00
2023-05-25T14:08:40.340Z,24.00
2023-05-25T14:11:07.285Z,24.00
2023-05-25T14:13:36.301Z,24.10
2023-05-25T14:16:03.895Z,24.10
2023-05-25T14:18:31.148Z,24.20
2023-05-25T14:20:58.209Z,24.30
2023-05-25T14:23:25.151Z,24.30
2023-05-25T14:25:52.283Z,24.30
2023-05-25T14:28:19.650Z,24.30
2023-05-25T14:30:46.780Z,24.50
2023-05-25T14:33:16.106Z,24.40
2023-05-25T14:35:43.570Z,24.40
2023-05-25T14:38:10.760Z,24.30
2023-05-25T14:40:37.813Z,24.30
2023-05-25T14:43:04.812Z,24.30
2023-05-25T14:45:31.809Z,24.10
2023-05-25T14:48:11.996Z,23.90
2023-05-25T14:50:44.885Z,23.80
2023-05-25T14:53:12.017Z,23.70
2023-05-25T14:55:39.030Z,23.70
2023-05-25T14:58:05.968Z,23.80
2023-05-25T15:00:33.029Z,23.80
2023-05-25T15:03:00.065Z,23.70
2023-05-25T15:05:27.121Z,23.70
2023-05-25T15:07:54.595Z,23.80
2023-05-25T15:10:21.616Z,23.90
2023-05-25T15:12:48.585Z,24.00
2023-05-25T15:15:15.702Z,24.00
2023-05-25T15:17:42.837Z,24.10
2023-05-25T15:20:10.185Z,24.10
2023-05-25T15:22:37.200Z,24.10
2023-05-25T15:25:05.523Z,24.10
2023-05-25T15:27:34.866Z,24.10
2023-05-25T15:30:01.944Z,24.10
2023-05-25T15:32:28.950Z,24.10
2023-05-25T15:34:55.898Z,24.00
2023-05-25T15:37:22.892Z,24.10
2023-05-25T15:39:49.819Z,24.20
2023-05-25T15:42:16.721Z,24.10
2023-05-25T15:44:43.768Z,24.10
2023-05-25T15:47:10.768Z,24.10
2023-05-25T15:49:37.818Z,24.20
2023-05-25T15:52:04.900Z,24.30
2023-05-25T15:54:32.092Z,24.20
2023-05-25T15:56:59.151Z,24.30
2023-05-25T15:59:26.091Z,24.10
2023-05-25T16:01:53.060Z,24.10
2023-05-25T16:04:20.158Z,24.10
2023-05-25T16:06:48.702Z,24.10
2023-05-25T16:09:16.374Z,24.00
2023-05-25T16:11:43.352Z,24.00
2023-05-25T16:14:10.318Z,23.90
2023-05-25T16:16:37.607Z,23.90
2023-05-25T16:19:04.633Z,23.90
2023-05-25T16:21:36.944Z,23.80
2023-05-25T16:24:05.931Z,23.80
2023-05-25T16:26:33.380Z,23.80
2023-05-25T16:29:00.527Z,23.80
2023-05-25T16:31:28.001Z,23.80
2023-05-25T16:33:54.994Z,23.80
2023-05-25T16:36:22.048Z,23.70
2023-05-25T16:38:48.969Z,23.60
2023-05-25T16:41:15.905Z,23.50
2023-05-25T16:43:42.982Z,23.50
2023-05-25T16:46:09.938Z,23.50
2023-05-25T16:48:37.092Z,23.60
2023-05-25T16:51:04.012Z,23.80
2023-05-25T16:53:30.905Z,23.80
2023-05-25T16:55:58.018Z,23.80
2023-05-25T16:58:24.933Z,23.80
2023-05-25T17:00:51.982Z,23.80
2023-05-25T17:03:19.061Z,23.80
2023-05-25T17:05:46.297Z,23.80
2023-05-25T17:08:13.318Z,23.80
2023-05-25T17:10:40.811Z,23.70
2023-05-25T17:13:07.819Z,23.70
2023-05-25T17:15:34.791Z,23.70
2023-05-25T17:18:01.796Z,23.50
2023-05-25T17:20:29.330Z,23.50
2023-05-25T17:22:56.653Z,23.50
2023-05-25T17:25:23.853Z,23.50
2023-05-25T17:27:50.858Z,23.40
2023-05-25T17:30:17.876Z,23.40
2023-05-25T17:32:44.858Z,23.30
2023-05-25T17:35:11.892Z,23.30
2023-05-25T17:37:38.917Z,23.30
2023-05-25T17:40:06.215Z,23.30
2023-05-25T17:42:33.159Z,23.20
2023-05-25T17:45:00.082Z,23.20
2023-05-25T17:47:27.487Z,23.20
2023-05-25T17:49:54.593Z,23.10
2023-05-25T17:52:21.723Z,23.00
2023-05-25T17:54:48.670Z,23.00
2023-05-25T17:57:16.276Z,22.90
2023-05-25T17:59:45.636Z,22.80
2023-05-25T18:02:13.121Z,22.80
2023-05-25T18:04:40.188Z,22.70
2023-05-25T18:07:07.161Z,22.70
2023-05-25T18:09:34.129Z,22.60
2023-05-25T18:12:01.293Z,22.50
2023-05-25T18:14:29.264Z,22.50
2023-05-25T18:16:56.373Z,22.50
2023-05-25T18:19:23.355Z,22.40
2023-05-25T18:21:50.411Z,22.40
2023-05-25T18:24:17.686Z,22.30
2023-05-25T18:26:46.392Z,22.30
2023-05-25T18:29:13.494Z,22.30
2023-05-25T18:31:45.889Z,22.20
2023-05-25T18:34:13.236Z,22.20
2023-05-25T18:36:40.280Z,22.20
2023-05-25T18:39:07.288Z,22.20
2023-05-25T18:41:34.324Z,22.10
2023-05-25T18:44:01.243Z,22.10
2023-05-25T18:46:31.276Z,22.00
2023-05-25T18:48:58.498Z,22.00
2023-05-25T18:51:26.093Z,22.00
2023-05-25T18:53:53.475Z,21.90
2023-05-25T18:56:20.454Z,21.90
2023-05-25T18:58:48.963Z,21.80
2023-05-25T19:01:17.793Z,21.70
2023-05-25T19:03:45.051Z,21.70
2023-05-25T19:06:12.097Z,21.70
2023-05-25T19:08:39.075Z,21.60
2023-05-25T19:11:06.182Z,21.60
2023-05-25T19:13:33.181Z,21.60
2023-05-25T19:16:01.322Z,21.50
2023-05-25T19:18:28.382Z,21.50
2023-05-25T19:20:55.548Z,21.40
2023-05-25T19:23:22.423Z,21.40
2023-05-25T19:25:49.360Z,21.40
2023-05-25T19:28:16.405Z,21.40
2023-05-25T19:30:43.439Z,21.30
2023-05-25T19:33:10.793Z,21.30
2023-05-25T19:35:37.951Z,21.30
2023-05-25T19:38:04.899Z,21.20
2023-05-25T19:40:32.489Z,21.20
2023-05-25T19:42:59.484Z,21.20
2023-05-25T19:45:26.485Z,21.20
2023-05-25T19:47:54.015Z,21.10
2023-05-25T19:50:21.402Z,21.10
2023-05-25T19:52:48.425Z,21.00
2023-05-25T19:55:15.458Z,21.00
2023-05-25T19:57:42.480Z,20.90
2023-05-25T20:00:17.425Z,20.90
2023-05-25T20:02:52.199Z,20.90
2023-05-25T20:05:19.883Z,20.90
2023-05-25T20:07:47.004Z,20.90
2023-05-25T20:10:14.093Z,20.80
2023-05-25T20:12:41.618Z,20.80
2023-05-25T20:15:09.113Z,20.80
2023-05-25T20:17:36.082Z,20.80
2023-05-25T20:20:05.268Z,20.70
2023-05-25T20:22:33.107Z,20.70
2023-05-25T20:25:01.060Z,20.70
2023-05-25T20:27:28.446Z,20.70
2023-05-25T20:29:55.495Z,20.70
2023-05-25T20:32:22.692Z,20.70
2023-05-25T20:34:49.779Z,20.70
2023-05-25T20:37:17.358Z,20.60
2023-05-25T20:39:44.649Z,20.60
2023-05-25T20:42:11.889Z,20.60
2023-05-25T20:44:38.866Z,20.50
2023-05-25T20:47:06.139Z,20.50
2023-05-25T20:49:33.067Z,20.50
2023-05-25T20:52:00.148Z,20.40
2023-05-25T20:54:27.417Z,20.40
2023-05-25T20:56:54.506Z,20.40
2023-05-25T20:59:22.237Z,20.30
2023-05-25T21:01:49.342Z,20.30
2023-05-25T21:04:16.397Z,20.30
2023-05-25T21:06:43.501Z,20.20
2023-05-25T21:09:10.713Z,20.20
2023-05-25T21:11:37.794Z,20.20
2023-05-25T21:14:04.864Z,20.20
2023-05-25T21:16:32.011Z,20.20
2023-05-25T21:18:59.009Z,20.10
2023-05-25T21:21:28.076Z,20.00
2023-05-25T21:23:55.076Z,20.10
2023-05-25T21:26:23.557Z,20.00
2023-05-25T21:28:50.837Z,20.00
2023-05-25T21:31:17.825Z,20.00
2023-05-25T21:33:45.944Z,19.90
2023-05-25T21:36:16.011Z,19.90
2023-05-25T21:38:43.079Z,19.90
2023-05-25T21:41:10.069Z,19.80
2023-05-25T21:43:37.245Z,19.80
2023-05-25T21:46:04.631Z,19.80
2023-05-25T21:48:31.590Z,19.80
2023-05-25T21:50:58.779Z,19.70
2023-05-25T21:53:25.974Z,19.70
2023-05-25T21:55:53.093Z,19.70
2023-05-25T21:58:20.257Z,19.70
2023-05-25T22:00:47.467Z,19.70
2023-05-25T22:03:14.742Z,19.60
2023-05-25T22:05:42.062Z,19.60
2023-05-25T22:08:09.293Z,19.60
2023-05-25T22:10:36.523Z,19.50
2023-05-25T22:13:03.867Z,19.50
2023-05-25T22:15:31.142Z,19.50
2023-05-25T22:17:58.401Z,19.50
2023-05-25T22:20:25.743Z,19.40
2023-05-25T22:22:52.750Z,19.40
2023-05-25T22:25:19.870Z,19.40
2023-05-25T22:27:46.860Z,19.30
2023-05-25T22:30:14.218Z,19.30
2023-05-25T22:32:41.226Z,19.20
2023-05-25T22:35:08.571Z,19.20
2023-05-25T22:37:35.678Z,19.20
2023-05-25T22:40:02.644Z,19.20
2023-05-25T22:42:29.692Z,19.20
2023-05-25T22:44:56.823Z,19.20
2023-05-25T22:47:23.894Z,19.10
2023-05-25T22:49:50.930Z,19.10
2023-05-25T22:52:17.869Z,19.10
2023-05-25T22:54:44.860Z,19.10
2023-05-25T22:57:11.905Z,19.00
2023-05-25T22:59:38.909Z,19.00
2023-05-25T23:02:08.493Z,19.00
2023-05-25T23:04:36.447Z,19.00
2023-05-25T23:07:05.381Z,19.00
2023-05-25T23:09:32.316Z,19.00
2023-05-25T23:11:59.270Z,19.00
2023-05-25T23:14:26.244Z,18.90
2023-05-25T23:16:53.462Z,18.90
2023-05-25T23:19:20.394Z,18.90
2023-05-25T23:21:48.384Z,18.90
2023-05-25T23:24:15.683Z,18.90
2023-05-25T23:26:42.714Z,18.90
2023-05-25T23:29:09.643Z,18.80
2023-05-25T23:31:37.031Z,18.80
2023-05-25T23:34:04.011Z,18.80
2023-05-25T23:36:31.409Z,18.80
2023-05-25T23:38:58.379Z,18.80
2023-05-25T23:41:26.376Z,18.80
2023-05-25T23:43:53.296Z,18.80
2023-05-25T23:46:20.368Z,18.70
2023-05-25T23:48:47.457Z,18.70
2023-05-25T23:51:14.404Z,18.70
2023-05-25T23:53:41.420Z,18.70
2023-05-25T23:56:08.399Z,18.80
2023-05-25T23:58:35.805Z,18.80
